Time;durP1;ratioP1;P1;durP2;ratioP2;P2;SDS_P1;SDS_P2;PMS_P1;PMS_P2;Temp;Humidity;BMP_temperature;BMP_pressure;BME280_temperature;BME280_humidity;BME280_pressure;Samples;Min_cycle;Max_cycle;Signal;HPM_P1;HPM_P2
2023/03/22 00:01:55;;;;;;;3.65;1.88;;;11.20;62.40;;;;;;5036471;28;20029;-73
2023/03/22 00:04:21;;;;;;;8.27;2.40;;;11.10;62.80;;;;;;5036423;28;20059;-77
2023/03/22 00:06:46;;;;;;;3.30;1.75;;;11.10;62.90;;;;;;5036386;28;20021;-74
2023/03/22 00:09:12;;;;;;;3.58;1.92;;;11.10;63.00;;;;;;5036418;28;20028;-74
2023/03/22 00:11:38;;;;;;;4.90;1.77;;;11.20;63.20;;;;;;5036196;28;20032;-75
2023/03/22 00:14:03;;;;;;;2.90;1.52;;;11.10;63.10;;;;;;5036305;28;20017;-74
2023/03/22 00:16:29;;;;;;;7.63;2.22;;;11.10;63.10;;;;;;5036084;28;20478;-75
2023/03/22 00:18:54;;;;;;;3.63;1.67;;;11.10;63.10;;;;;;5036144;28;20025;-76
2023/03/22 00:21:20;;;;;;;4.93;2.20;;;11.00;63.10;;;;;;5036236;28;20033;-75
2023/03/22 00:23:46;;;;;;;3.15;1.75;;;11.00;62.60;;;;;;5036181;28;20032;-75
2023/03/22 00:26:12;;;;;;;5.13;1.85;;;10.90;62.80;;;;;;5035986;28;20490;-75
2023/03/22 00:28:39;;;;;;;3.50;1.60;;;10.90;62.90;;;;;;5035932;28;20032;-74
2023/03/22 00:31:06;;;;;;;2.53;1.50;;;10.90;63.00;;;;;;5035810;28;20017;-75
2023/03/22 00:33:31;;;;;;;3.47;1.95;;;10.80;63.00;;;;;;5035610;28;20099;-76
2023/03/22 00:36:00;;;;;;;5.32;1.77;;;10.80;63.20;;;;;;5035737;28;20425;-75
2023/03/22 00:38:32;;;;;;;2.20;1.40;;;10.80;63.30;;;;;;5035492;28;20666;-75
2023/03/22 00:41:08;;;;;;;2.90;1.60;;;10.80;63.40;;;;;;5035833;28;20022;-75
2023/03/22 00:43:34;;;;;;;;;;;10.80;63.70;;;;;;5036178;28;20025;-75
2023/03/22 00:45:59;;;;;;;;;;;10.80;63.70;;;;;;5036076;28;19991;-75
2023/03/22 00:48:25;;;;;;;4.28;1.63;;;10.70;63.80;;;;;;5035729;28;19905;-76
2023/03/22 00:50:50;;;;;;;3.28;1.65;;;10.70;63.90;;;;;;5035633;28;20029;-75
2023/03/22 00:53:16;;;;;;;5.70;2.13;;;10.70;64.00;;;;;;5034069;28;20033;-75
2023/03/22 00:55:42;;;;;;;3.03;1.77;;;10.70;64.40;;;;;;5035534;28;20060;-77
2023/03/22 00:58:07;;;;;;;3.28;1.63;;;10.60;64.50;;;;;;5035459;28;20045;-76
2023/03/22 01:00:33;;;;;;;5.60;2.00;;;10.60;64.60;;;;;;5035509;28;20022;-76
2023/03/22 01:03:02;;;;;;;4.82;1.67;;;10.50;64.80;;;;;;5035396;28;20028;-75
2023/03/22 01:05:32;;;;;;;3.45;1.75;;;10.50;64.90;;;;;;5034145;28;20032;-79
2023/03/22 01:08:07;;;;;;;3.25;1.70;;;10.50;65.00;;;;;;5035209;28;20022;-76
2023/03/22 01:10:36;;;;;;;4.25;2.10;;;10.40;65.10;;;;;;5035357;28;20055;-75
2023/03/22 01:13:02;;;;;;;3.55;2.08;;;10.40;65.10;;;;;;5035166;28;20033;-75
2023/03/22 01:15:27;;;;;;;4.32;2.10;;;10.40;65.20;;;;;;5035175;28;20104;-75
2023/03/22 01:17:53;;;;;;;5.90;1.88;;;10.30;65.40;;;;;;5034990;28;20521;-74
2023/03/22 01:20:19;;;;;;;4.57;1.92;;;10.30;65.50;;;;;;5034959;28;20033;-75
2023/03/22 01:22:44;;;;;;;3.20;2.00;;;10.20;65.70;;;;;;5033554;28;20083;-76
2023/03/22 01:25:10;;;;;;;4.00;1.75;;;10.00;65.60;;;;;;5034631;28;20355;-77
2023/03/22 01:27:36;;;;;;;2.83;1.70;;;9.80;65.60;;;;;;5034998;28;20030;-77
2023/03/22 01:30:04;;;;;;;2.97;2.15;;;9.70;66.20;;;;;;5034967;28;20382;-76
2023/03/22 01:32:30;;;;;;;3.35;1.90;;;9.60;66.40;;;;;;5034744;28;20044;-76
2023/03/22 01:34:55;;;;;;;2.75;1.65;;;9.60;66.80;;;;;;5034648;28;20466;-76
2023/03/22 01:37:26;;;;;;;4.82;1.95;;;9.60;67.00;;;;;;5034473;28;20092;-75
2023/03/22 01:39:53;;;;;;;4.25;2.05;;;9.60;67.00;;;;;;5034576;28;20076;-75
2023/03/22 01:42:21;;;;;;;3.38;1.85;;;9.60;67.20;;;;;;5034370;28;20021;-75
2023/03/22 01:45:12;;;;;;;7.53;1.90;;;9.60;67.10;;;;;;5034635;28;20022;-75
2023/03/22 01:47:42;;;;;;;3.03;1.90;;;9.50;67.60;;;;;;5031503;28;20033;-75
2023/03/22 01:50:08;;;;;;;3.35;1.88;;;9.50;67.60;;;;;;5034401;28;20493;-74
2023/03/22 01:52:36;;;;;;;2.85;1.30;;;9.30;68.10;;;;;;5034376;28;20400;-75
2023/03/22 01:55:05;;;;;;;7.35;1.55;;;9.30;68.20;;;;;;5034350;28;20026;-75
2023/03/22 01:57:36;;;;;;;2.33;1.65;;;9.30;68.10;;;;;;5034155;28;20112;-75
2023/03/22 02:00:13;;;;;;;3.60;1.20;;;9.20;68.00;;;;;;5038367;28;20493;-75
2023/03/22 02:02:38;;;;;;;2.20;1.90;;;9.20;68.10;;;;;;5034111;28;20026;-75
2023/03/22 02:05:05;;;;;;;1.83;1.50;;;9.10;68.50;;;;;;5033921;28;20025;-75
2023/03/22 02:07:31;;;;;;;3.28;1.70;;;9.10;68.50;;;;;;5033902;28;20470;-74
2023/03/22 02:09:57;;;;;;;4.68;1.60;;;9.00;68.40;;;;;;5033676;28;20029;-74
2023/03/22 02:12:53;;;;;;;3.28;1.73;;;9.00;68.50;;;;;;5033804;28;20509;-74
2023/03/22 02:15:24;;;;;;;4.18;1.92;;;8.90;68.90;;;;;;5033815;28;20026;-75
2023/03/22 02:18:20;;;;;;;4.50;1.75;;;8.90;68.90;;;;;;5033152;28;20104;-75
2023/03/22 02:20:55;;;;;;;;;;;8.90;69.00;;;;;;5034006;28;20033;-75
2023/03/22 02:23:26;;;;;;;5.72;2.28;;;8.80;69.10;;;;;;5033575;28;19912;-75
2023/03/22 02:26:23;;;;;;;3.25;1.63;;;8.80;69.10;;;;;;5033539;28;20026;-74
2023/03/22 02:29:07;;;;;;;2.83;1.70;;;8.70;69.50;;;;;;5033089;28;20042;-74
2023/03/22 02:31:53;;;;;;;3.65;1.67;;;8.80;69.30;;;;;;5033726;28;20017;-74
2023/03/22 02:34:31;;;;;;;5.43;2.08;;;8.70;69.40;;;;;;5035047;28;20021;-74
2023/03/22 02:37:11;;;;;;;4.57;1.77;;;8.70;69.20;;;;;;5040288;28;20032;-73
2023/03/22 02:40:04;;;;;;;2.70;1.58;;;8.70;70.30;;;;;;5033048;28;20118;-74
2023/03/22 02:42:35;;;;;;;4.47;1.73;;;8.70;69.40;;;;;;5033457;28;20032;-74
2023/03/22 02:45:13;;;;;;;5.05;1.75;;;8.60;69.00;;;;;;5033224;28;20028;-76
2023/03/22 02:47:53;;;;;;;2.60;1.65;;;8.50;69.40;;;;;;5033368;28;20037;-76
2023/03/22 02:50:45;;;;;;;4.57;1.98;;;8.50;69.60;;;;;;5033182;28;20021;-75
2023/03/22 02:53:21;;;;;;;3.05;1.80;;;8.50;69.60;;;;;;5033416;28;20021;-77
2023/03/22 02:56:11;;;;;;;6.60;2.13;;;8.40;69.50;;;;;;5033477;28;20018;-76
2023/03/22 02:58:50;;;;;;;2.40;1.75;;;8.30;70.00;;;;;;5033269;28;20037;-77
2023/03/22 03:01:27;;;;;;;3.42;1.85;;;8.30;70.20;;;;;;5033168;28;20478;-77
2023/03/22 03:03:58;;;;;;;3.65;1.80;;;8.20;70.40;;;;;;5033388;28;20021;-76
2023/03/22 03:06:29;;;;;;;4.18;1.67;;;8.20;70.30;;;;;;5033028;28;20037;-76
2023/03/22 03:08:56;;;;;;;2.97;1.90;;;8.30;70.40;;;;;;5033041;28;20100;-75
2023/03/22 03:11:23;;;;;;;3.97;1.77;;;8.20;70.00;;;;;;5032949;28;20022;-75
2023/03/22 03:13:49;;;;;;;4.88;1.92;;;8.30;70.00;;;;;;5032954;28;20040;-75
2023/03/22 03:16:19;;;;;;;2.63;1.63;;;8.20;70.80;;;;;;5032965;28;20100;-75
2023/03/22 03:18:54;;;;;;;4.35;1.92;;;8.20;70.10;;;;;;5033045;28;20061;-76
2023/03/22 03:21:50;;;;;;;4.70;2.13;;;8.10;70.00;;;;;;5031887;28;20013;-78
2023/03/22 03:24:45;;;;;;;3.75;1.60;;;8.00;70.40;;;;;;5033069;28;20430;-78
2023/03/22 03:27:16;;;;;;;3.45;1.75;;;8.00;70.60;;;;;;5033175;28;20052;-77
2023/03/22 03:29:53;;;;;;;4.05;1.75;;;7.90;70.70;;;;;;5036029;28;20026;-75
2023/03/22 03:32:34;;;;;;;4.40;1.70;;;7.80;70.70;;;;;;5037004;28;20028;-74
2023/03/22 03:35:22;;;;;;;1.73;1.58;;;7.80;71.10;;;;;;5037049;28;20029;-76
2023/03/22 03:38:00;;;;;;;2.58;1.60;;;7.80;71.10;;;;;;5036539;28;20406;-76
2023/03/22 03:40:30;;;;;;;4.28;1.83;;;7.70;71.20;;;;;;5037119;28;20022;-76
2023/03/22 03:42:58;;;;;;;3.33;1.90;;;7.60;71.40;;;;;;5036678;28;20025;-77
2023/03/22 03:45:24;;;;;;;6.25;1.80;;;7.60;71.40;;;;;;5036841;28;20045;-75
2023/03/22 03:47:55;;;;;;;5.13;1.65;;;7.60;71.30;;;;;;5036769;28;20100;-75
2023/03/22 03:50:23;;;;;;;3.42;1.73;;;7.50;71.40;;;;;;5036492;28;20027;-76
2023/03/22 03:52:49;;;;;;;4.40;1.60;;;7.50;71.70;;;;;;5036596;28;20036;-77
2023/03/22 03:55:15;;;;;;;3.75;1.77;;;7.50;72.60;;;;;;5036559;28;20025;-76
2023/03/22 03:57:41;;;;;;;4.25;1.67;;;7.50;71.80;;;;;;5036381;28;20563;-75
2023/03/22 04:00:08;;;;;;;6.45;2.17;;;7.50;71.60;;;;;;5036481;28;20029;-75
2023/03/22 04:02:33;;;;;;;5.03;1.73;;;7.50;71.50;;;;;;5036430;28;20517;-74
2023/03/22 04:04:59;;;;;;;4.13;2.10;;;7.50;71.10;;;;;;5036406;28;20104;-76
2023/03/22 04:07:24;;;;;;;2.75;1.83;;;7.40;71.20;;;;;;5036428;28;20018;-74
2023/03/22 04:09:50;;;;;;;4.57;2.00;;;7.40;71.10;;;;;;5036318;28;20026;-74
2023/03/22 04:12:16;;;;;;;3.30;2.00;;;7.40;71.10;;;;;;5036375;28;20517;-75
2023/03/22 04:14:41;;;;;;;4.55;1.80;;;7.40;71.10;;;;;;5036268;28;20029;-74
2023/03/22 04:17:08;;;;;;;3.25;1.65;;;7.40;70.90;;;;;;5036063;28;20085;-74
2023/03/22 04:19:34;;;;;;;4.57;1.85;;;7.30;70.90;;;;;;5036198;28;20057;-75
2023/03/22 04:22:00;;;;;;;6.93;2.65;;;7.30;71.10;;;;;;5035960;28;20080;-76
2023/03/22 04:24:26;;;;;;;4.50;2.10;;;7.30;71.20;;;;;;5035974;28;20025;-76
2023/03/22 04:26:51;;;;;;;4.45;2.10;;;7.20;71.30;;;;;;5034679;28;20120;-76
2023/03/22 04:29:17;;;;;;;2.50;1.98;;;7.20;71.20;;;;;;5036028;28;20055;-76
2023/03/22 04:31:43;;;;;;;4.25;1.77;;;7.20;71.20;;;;;;5036003;28;20029;-75
2023/03/22 04:34:08;;;;;;;2.90;1.63;;;7.20;71.10;;;;;;5035847;28;20018;-75
2023/03/22 04:36:38;;;;;;;5.15;2.47;;;7.10;71.10;;;;;;5037240;28;20513;-75
2023/03/22 04:39:07;;;;;;;6.82;2.40;;;7.10;70.80;;;;;;5038637;28;20107;-75
2023/03/22 04:41:33;;;;;;;7.05;2.10;;;7.10;70.90;;;;;;5035956;28;20018;-73
2023/03/22 04:44:01;;;;;;;4.07;2.08;;;7.00;71.20;;;;;;5039099;28;20021;-74
2023/03/22 04:46:28;;;;;;;3.80;2.30;;;7.10;71.30;;;;;;5035702;28;20029;-74
2023/03/22 04:48:54;;;;;;;3.88;2.03;;;7.00;71.20;;;;;;5035605;28;20022;-75
2023/03/22 04:51:19;;;;;;;6.82;2.53;;;7.00;71.40;;;;;;5034269;28;20025;-76
2023/03/22 04:53:45;;;;;;;6.82;2.30;;;6.90;71.50;;;;;;5035263;28;20105;-75
2023/03/22 04:56:13;;;;;;;5.32;1.98;;;7.00;71.70;;;;;;5033888;28;20026;-77
2023/03/22 04:58:41;;;;;;;4.45;2.30;;;6.80;71.80;;;;;;5035348;28;20063;-79
2023/03/22 05:01:07;;;;;;;4.05;1.90;;;6.70;72.10;;;;;;5035217;28;20036;-75
2023/03/22 05:03:33;;;;;;;5.45;1.85;;;6.60;72.40;;;;;;5035283;28;20029;-76
2023/03/22 05:06:01;;;;;;;3.15;1.90;;;6.60;72.30;;;;;;5035054;28;20021;-75
2023/03/22 05:08:29;;;;;;;5.20;1.98;;;6.70;72.30;;;;;;5035200;28;20029;-74
2023/03/22 05:10:57;;;;;;;3.45;1.98;;;6.70;73.00;;;;;;5035099;28;20385;-77
2023/03/22 05:13:26;;;;;;;4.10;2.28;;;6.70;72.10;;;;;;5035887;28;20030;-76
2023/03/22 05:15:52;;;;;;;6.53;2.20;;;6.70;71.60;;;;;;5035295;28;20036;-77
2023/03/22 05:18:19;;;;;;;5.82;2.13;;;6.70;71.10;;;;;;5035357;28;20390;-76
2023/03/22 05:20:46;;;;;;;5.97;1.92;;;6.70;70.80;;;;;;5035678;28;20021;-75
2023/03/22 05:23:13;;;;;;;3.35;1.70;;;6.70;70.80;;;;;;5034845;28;20033;-76
2023/03/22 05:25:39;;;;;;;7.13;2.03;;;6.80;70.20;;;;;;5033277;28;20438;-75
2023/03/22 05:28:05;;;;;;;5.75;2.38;;;6.80;69.90;;;;;;5034499;28;20021;-75
2023/03/22 05:30:31;;;;;;;5.22;2.30;;;6.80;69.40;;;;;;5034528;28;20022;-75
2023/03/22 05:33:03;;;;;;;5.47;2.70;;;6.80;69.40;;;;;;5034631;28;20393;-75
2023/03/22 05:35:29;;;;;;;5.80;2.00;;;6.80;69.60;;;;;;5034568;28;20175;-77
2023/03/22 05:37:56;;;;;;;5.63;2.78;;;6.70;70.10;;;;;;5034216;28;20053;-75
2023/03/22 05:40:23;;;;;;;3.75;2.20;;;6.70;69.90;;;;;;5034599;28;20112;-75
2023/03/22 05:42:48;;;;;;;6.30;2.55;;;6.60;70.10;;;;;;5034410;28;20029;-78
2023/03/22 05:45:14;;;;;;;4.55;2.10;;;6.70;70.00;;;;;;5034448;28;20438;-78
2023/03/22 05:47:40;;;;;;;6.45;3.10;;;6.70;70.30;;;;;;5034414;28;20493;-76
2023/03/22 05:50:10;;;;;;;3.80;2.55;;;6.70;69.90;;;;;;5034180;28;20021;-76
2023/03/22 05:52:36;;;;;;;3.65;2.17;;;6.80;68.90;;;;;;5033337;28;20026;-76
2023/03/22 05:55:02;;;;;;;10.20;2.58;;;6.80;68.60;;;;;;5033976;28;20024;-76
2023/03/22 05:57:28;;;;;;;4.57;2.40;;;6.90;68.40;;;;;;5034026;28;20478;-75
2023/03/22 05:59:57;;;;;;;3.05;2.05;;;6.90;67.80;;;;;;5034061;28;20431;-76
2023/03/22 06:02:23;;;;;;;6.35;2.17;;;6.90;68.00;;;;;;5033983;28;20017;-76
2023/03/22 06:04:50;;;;;;;9.52;3.13;;;6.80;67.90;;;;;;5034122;28;20028;-77
2023/03/22 06:07:16;;;;;;;6.75;2.95;;;6.90;68.00;;;;;;5033936;28;20100;-76
2023/03/22 06:09:42;;;;;;;6.78;2.95;;;7.00;67.70;;;;;;5033806;28;20033;-77
2023/03/22 06:12:08;;;;;;;5.78;2.97;;;7.10;67.40;;;;;;5033978;28;20078;-77
2023/03/22 06:14:34;;;;;;;6.20;3.00;;;7.10;67.10;;;;;;5033683;28;20408;-77
2023/03/22 06:16:59;;;;;;;5.60;3.60;;;7.20;66.80;;;;;;5033701;28;20037;-77
2023/03/22 06:19:25;;;;;;;7.43;3.30;;;7.20;66.40;;;;;;5033632;28;20504;-77
2023/03/22 06:21:52;;;;;;;5.95;2.92;;;7.30;66.10;;;;;;5033621;28;20431;-77
2023/03/22 06:24:18;;;;;;;10.70;4.13;;;7.40;65.80;;;;;;5033538;28;20466;-77
2023/03/22 06:26:44;;;;;;;7.30;2.75;;;7.50;65.70;;;;;;5033223;28;20033;-77
2023/03/22 06:29:10;;;;;;;9.23;3.03;;;7.50;65.50;;;;;;5032896;28;20025;-77
2023/03/22 06:31:36;;;;;;;5.28;2.45;;;7.60;64.90;;;;;;5033006;28;20036;-76
2023/03/22 06:34:02;;;;;;;8.43;3.13;;;7.70;64.70;;;;;;5031822;28;20394;-76
2023/03/22 06:36:29;;;;;;;6.25;2.50;;;7.70;64.10;;;;;;5033412;28;20025;-77
2023/03/22 06:38:55;;;;;;;6.95;2.55;;;7.80;63.80;;;;;;5033216;28;20057;-73
2023/03/22 06:41:21;;;;;;;4.30;2.45;;;7.90;63.70;;;;;;5033471;28;20067;-77
2023/03/22 06:43:47;;;;;;;4.53;2.33;;;8.00;63.20;;;;;;5033325;28;20529;-77
2023/03/22 06:46:13;;;;;;;6.63;3.05;;;8.20;62.90;;;;;;5032999;28;20088;-77
2023/03/22 06:48:38;;;;;;;3.05;2.25;;;8.30;62.40;;;;;;5033241;28;20037;-78
2023/03/22 06:51:04;;;;;;;5.43;2.40;;;8.50;61.80;;;;;;5033036;28;20029;-77
2023/03/22 06:53:30;;;;;;;5.45;2.60;;;8.70;61.60;;;;;;5031818;28;20398;-77
2023/03/22 06:55:55;;;;;;;5.28;2.55;;;8.80;60.80;;;;;;5033032;28;20028;-78
2023/03/22 06:58:21;;;;;;;5.50;2.60;;;8.90;60.70;;;;;;5032888;28;20395;-79
2023/03/22 07:00:47;;;;;;;5.72;2.85;;;9.00;60.70;;;;;;5032998;28;20075;-76
2023/03/22 07:03:12;;;;;;;5.47;2.53;;;9.10;60.20;;;;;;5032801;28;20025;-76
2023/03/22 07:05:38;;;;;;;6.50;3.50;;;9.20;59.80;;;;;;5032831;28;20017;-76
2023/03/22 07:08:03;;;;;;;6.35;2.95;;;9.40;60.10;;;;;;5032748;28;20117;-77
2023/03/22 07:10:29;;;;;;;11.43;7.93;;;9.50;60.00;;;;;;5032853;28;20028;-76
2023/03/22 07:12:55;;;;;;;9.15;3.38;;;9.60;59.70;;;;;;5032842;28;20026;-76
2023/03/22 07:15:23;;;;;;;8.52;4.68;;;9.70;59.50;;;;;;5032913;28;20467;-75
2023/03/22 07:17:50;;;;;;;6.68;3.70;;;9.90;59.30;;;;;;5032573;28;20092;-75
2023/03/22 07:20:16;;;;;;;4.80;2.78;;;10.00;59.20;;;;;;5032929;28;20018;-77
2023/03/22 07:22:42;;;;;;;5.10;3.05;;;10.20;59.00;;;;;;5032756;28;20025;-76
2023/03/22 07:25:08;;;;;;;5.78;3.15;;;10.40;58.70;;;;;;5032792;28;20021;-75
2023/03/22 07:27:34;;;;;;;13.15;5.60;;;10.50;58.70;;;;;;5033100;28;20041;-75
2023/03/22 07:29:59;;;;;;;7.57;2.38;;;10.70;58.40;;;;;;5031918;28;20014;-78
2023/03/22 07:32:25;;;;;;;6.32;1.77;;;11.00;58.50;;;;;;5031560;28;20029;-75
2023/03/22 07:34:50;;;;;;;3.92;1.90;;;11.10;58.00;;;;;;5032507;28;20104;-74
2023/03/22 07:37:16;;;;;;;3.60;1.88;;;11.30;58.00;;;;;;5032367;28;20044;-74
2023/03/22 07:39:42;;;;;;;2.35;1.02;;;11.40;57.80;;;;;;5032254;28;20038;-79
2023/03/22 07:42:08;;;;;;;2.72;1.20;;;11.50;57.70;;;;;;5032509;28;20061;-78
2023/03/22 07:44:34;;;;;;;3.25;0.90;;;11.60;58.20;;;;;;5032388;28;20056;-72
2023/03/22 07:47:00;;;;;;;2.00;0.88;;;11.90;58.80;;;;;;5032408;28;20078;-73
2023/03/22 07:49:26;;;;;;;2.25;0.93;;;12.10;59.80;;;;;;5032328;28;20094;-74
2023/03/22 07:51:52;;;;;;;1.52;0.95;;;12.30;56.40;;;;;;5032036;28;20028;-73
2023/03/22 07:54:17;;;;;;;2.00;0.60;;;12.40;56.90;;;;;;5032331;28;20029;-74
2023/03/22 07:56:43;;;;;;;1.52;0.70;;;12.60;55.20;;;;;;5031969;28;20053;-75
2023/03/22 07:59:09;;;;;;;5.20;1.30;;;12.70;54.60;;;;;;5032113;28;20043;-73
2023/03/22 08:01:35;;;;;;;1.63;0.80;;;12.70;55.20;;;;;;5032066;28;20450;-74
2023/03/22 08:04:01;;;;;;;1.98;0.90;;;12.70;56.80;;;;;;5031797;28;20105;-74
2023/03/22 08:06:28;;;;;;;3.30;0.80;;;12.80;55.20;;;;;;5031674;28;20100;-74
2023/03/22 08:08:54;;;;;;;4.18;0.77;;;12.90;54.40;;;;;;5032139;28;20029;-74
2023/03/22 08:11:19;;;;;;;2.65;1.52;;;13.10;56.90;;;;;;5032817;28;20021;-75
2023/03/22 08:13:45;;;;;;;5.22;0.90;;;13.30;55.30;;;;;;5031760;28;20064;-76
2023/03/22 08:16:11;;;;;;;2.00;1.00;;;13.50;53.40;;;;;;5036319;28;20052;-75
2023/03/22 08:18:36;;;;;;;1.73;1.15;;;13.40;53.20;;;;;;5036291;28;20041;-76
2023/03/22 08:21:02;;;;;;;2.45;0.73;;;13.30;53.10;;;;;;5035423;28;20025;-76
2023/03/22 08:23:28;;;;;;;1.98;0.70;;;13.20;52.90;;;;;;5036836;28;20486;-75
2023/03/22 08:25:54;;;;;;;2.35;0.73;;;13.20;52.70;;;;;;5034621;28;20379;-75
2023/03/22 08:28:19;;;;;;;1.52;0.68;;;13.10;53.20;;;;;;5035890;28;20051;-75
2023/03/22 08:30:47;;;;;;;1.58;0.70;;;12.90;53.60;;;;;;5035652;28;20471;-75
2023/03/22 08:33:13;;;;;;;3.08;1.40;;;13.00;53.50;;;;;;5035612;28;20105;-75
2023/03/22 08:35:39;;;;;;;1.45;0.70;;;13.00;53.10;;;;;;5035655;28;20030;-76
2023/03/22 08:38:05;;;;;;;0.57;0.55;;;13.00;53.60;;;;;;5035924;28;20058;-74
2023/03/22 08:40:31;;;;;;;1.50;0.68;;;13.10;52.70;;;;;;5034163;28;20026;-74
2023/03/22 08:42:58;;;;;;;0.77;0.60;;;13.30;52.70;;;;;;5034160;28;20036;-74
2023/03/22 08:45:24;;;;;;;2.45;0.88;;;13.30;53.10;;;;;;5035445;28;20018;-74
2023/03/22 08:47:49;;;;;;;2.22;0.70;;;13.50;51.80;;;;;;5035363;28;20021;-75
2023/03/22 08:50:15;;;;;;;1.50;0.70;;;13.50;51.40;;;;;;5035135;28;20026;-74
2023/03/22 08:52:41;;;;;;;2.55;1.02;;;13.50;50.20;;;;;;5035301;28;20072;-74
2023/03/22 08:55:08;;;;;;;3.38;1.02;;;13.50;50.00;;;;;;5035089;28;20568;-74
2023/03/22 08:57:34;;;;;;;1.40;0.55;;;13.60;50.00;;;;;;5034845;28;20368;-74
2023/03/22 09:00:00;;;;;;;0.93;0.70;;;13.70;51.10;;;;;;5035010;28;20026;-74
2023/03/22 09:02:26;;;;;;;2.70;1.02;;;13.90;49.20;;;;;;5035239;28;20484;-74
2023/03/22 09:04:52;;;;;;;1.85;0.80;;;13.90;49.70;;;;;;5035062;28;20021;-74
2023/03/22 09:07:19;;;;;;;4.57;0.95;;;14.00;49.10;;;;;;5034877;28;20478;-74
2023/03/22 09:09:45;;;;;;;1.42;0.90;;;14.00;49.60;;;;;;5035028;28;20454;-74
2023/03/22 09:12:11;;;;;;;2.15;0.70;;;14.20;49.90;;;;;;5034919;28;20036;-74
2023/03/22 09:14:36;;;;;;;2.33;1.10;;;14.40;49.30;;;;;;5034960;28;20029;-74
2023/03/22 09:17:02;;;;;;;2.03;0.93;;;14.50;47.80;;;;;;5034943;28;20091;-75
2023/03/22 09:19:28;;;;;;;1.60;0.70;;;14.60;48.00;;;;;;5033640;28;20032;-74
2023/03/22 09:21:54;;;;;;;6.70;1.00;;;14.60;47.20;;;;;;5033837;28;20021;-75
2023/03/22 09:24:20;;;;;;;1.35;0.50;;;14.70;46.90;;;;;;5033744;28;20463;-75
2023/03/22 09:26:46;;;;;;;1.67;0.85;;;14.80;46.70;;;;;;5033807;28;20397;-75
2023/03/22 09:29:12;;;;;;;2.13;0.70;;;14.90;46.20;;;;;;5034732;28;20024;-74
2023/03/22 09:31:38;;;;;;;2.17;0.85;;;15.00;44.00;;;;;;5033285;28;20033;-76
2023/03/22 09:34:04;;;;;;;8.27;4.50;;;15.10;44.10;;;;;;5033209;28;20382;-76
2023/03/22 09:36:31;;;;;;;4.60;1.00;;;15.20;43.40;;;;;;5033347;28;20473;-75
2023/03/22 09:38:58;;;;;;;2.22;0.80;;;15.20;43.00;;;;;;5033104;28;20502;-75
2023/03/22 09:41:52;;;;;;;2.25;0.77;;;15.40;43.90;;;;;;5033077;28;20021;-75
2023/03/22 09:44:30;;;;;;;1.15;0.65;;;15.70;42.90;;;;;;5028773;28;20324;-75
2023/03/22 09:46:58;;;;;;;2.97;1.33;;;15.80;40.80;;;;;;5032897;28;20049;-74
2023/03/22 09:49:31;;;;;;;2.08;0.60;;;15.80;41.70;;;;;;5016428;28;20073;-75
2023/03/22 09:51:57;;;;;;;1.85;0.90;;;15.90;41.40;;;;;;5032680;28;20109;-75
2023/03/22 09:54:40;;;;;;;2.42;0.55;;;15.90;40.50;;;;;;5032627;28;20033;-74
2023/03/22 09:57:20;;;;;;;3.08;0.93;;;15.80;39.20;;;;;;5032347;28;20097;-74
2023/03/22 10:00:03;;;;;;;1.17;0.50;;;15.80;40.00;;;;;;5032620;28;20088;-75
2023/03/22 10:02:42;;;;;;;3.45;0.70;;;15.90;37.30;;;;;;5032940;28;20040;-74
2023/03/22 10:05:30;;;;;;;1.15;0.70;;;16.00;39.40;;;;;;5032665;28;20082;-74
2023/03/22 10:08:24;;;;;;;0.93;0.60;;;16.20;38.90;;;;;;5032612;28;20031;-75
2023/03/22 10:10:51;;;;;;;2.55;0.70;;;16.00;37.70;;;;;;5032448;28;20033;-75
2023/03/22 10:13:29;;;;;;;4.68;0.85;;;16.00;38.10;;;;;;5032311;28;20485;-75
2023/03/22 10:15:59;;;;;;;3.28;0.70;;;16.10;39.90;;;;;;5032308;28;20108;-75
2023/03/22 10:18:34;;;;;;;2.20;0.73;;;16.20;38.20;;;;;;5032490;28;20470;-75
2023/03/22 10:21:03;;;;;;;1.23;0.70;;;16.30;37.30;;;;;;5032570;28;20033;-73
2023/03/22 10:23:46;;;;;;;2.47;0.75;;;16.20;37.60;;;;;;5032192;28;20049;-73
2023/03/22 10:26:21;;;;;;;1.00;0.60;;;16.20;37.20;;;;;;5031874;28;20030;-76
2023/03/22 10:28:55;;;;;;;1.40;0.50;;;16.20;37.90;;;;;;5032273;28;20032;-74
2023/03/22 10:31:22;;;;;;;1.63;0.80;;;16.10;38.60;;;;;;5032230;28;20415;-77
2023/03/22 10:33:54;;;;;;;3.17;1.30;;;16.30;39.30;;;;;;5031886;28;20033;-76
2023/03/22 10:36:25;;;;;;;1.10;0.70;;;16.30;38.80;;;;;;5032029;28;20029;-75
2023/03/22 10:39:19;;;;;;;2.88;0.90;;;16.40;38.00;;;;;;5031679;28;20188;-74
2023/03/22 10:41:46;;;;;;;3.33;1.17;;;16.50;38.70;;;;;;5026468;28;20052;-75
2023/03/22 10:44:17;;;;;;;3.25;0.90;;;16.80;38.00;;;;;;5031739;28;20051;-75
2023/03/22 10:46:49;;;;;;;1.13;0.70;;;16.80;37.30;;;;;;5015357;28;20036;-76
2023/03/22 10:49:25;;;;;;;6.70;1.10;;;16.80;38.70;;;;;;5015416;28;20076;-75
2023/03/22 10:51:56;;;;;;;6.68;3.63;;;17.20;37.70;;;;;;5031563;28;20025;-76
2023/03/22 10:54:24;;;;;;;2.65;0.90;;;17.50;36.40;;;;;;5031855;28;20032;-74
2023/03/22 10:56:49;;;;;;;2.72;1.02;;;17.60;35.60;;;;;;5031562;28;20102;-75
2023/03/22 10:59:41;;;;;;;2.35;1.00;;;17.60;35.80;;;;;;5031151;28;20029;-75
2023/03/22 11:02:16;;;;;;;1.02;0.73;;;17.60;35.20;;;;;;5031643;28;20017;-74
2023/03/22 11:04:49;;;;;;;2.75;1.02;;;17.80;34.90;;;;;;5031496;28;20477;-76
2023/03/22 11:07:35;;;;;;;1.08;0.77;;;18.00;34.70;;;;;;5031156;28;20048;-75
2023/03/22 11:10:07;;;;;;;3.00;0.98;;;18.30;33.70;;;;;;5031257;28;20044;-76
2023/03/22 11:12:35;;;;;;;1.98;1.15;;;17.90;33.80;;;;;;5032364;28;20025;-77
2023/03/22 11:15:01;;;;;;;1.58;0.82;;;17.80;33.70;;;;;;5032319;28;20029;-77
2023/03/22 11:17:27;;;;;;;3.92;1.00;;;17.80;34.20;;;;;;5032231;28;20083;-77
2023/03/22 11:19:58;;;;;;;1.33;1.00;;;17.80;34.50;;;;;;5031084;28;20030;-77
2023/03/22 11:22:25;;;;;;;4.47;0.98;;;17.90;33.90;;;;;;5030969;28;20051;-77
2023/03/22 11:24:54;;;;;;;2.33;1.00;;;17.90;33.00;;;;;;5031145;28;20025;-77
2023/03/22 11:27:20;;;;;;;2.08;0.90;;;17.90;34.10;;;;;;5029099;28;20021;-76
2023/03/22 11:29:56;;;;;;;3.10;0.90;;;18.10;33.90;;;;;;5029989;28;20031;-76
2023/03/22 11:32:28;;;;;;;3.83;0.90;;;18.40;33.90;;;;;;5030656;28;20026;-77
2023/03/22 11:35:22;;;;;;;1.17;1.08;;;18.70;33.80;;;;;;5030386;28;20037;-77
2023/03/22 11:37:52;;;;;;;1.70;1.00;;;18.90;31.90;;;;;;5028952;28;20053;-77
2023/03/22 11:40:24;;;;;;;1.42;1.02;;;19.00;32.60;;;;;;5030884;28;20053;-76
2023/03/22 11:42:57;;;;;;;4.10;1.38;;;18.90;31.90;;;;;;5030896;28;20026;-75
2023/03/22 11:45:28;;;;;;;4.28;1.35;;;18.80;33.00;;;;;;5030648;28;20028;-76
2023/03/22 11:48:00;;;;;;;3.17;1.30;;;19.10;33.10;;;;;;5029761;28;20036;-78
2023/03/22 11:50:33;;;;;;;1.55;1.10;;;19.30;31.30;;;;;;5032072;28;20033;-75
2023/03/22 11:53:02;;;;;;;1.45;1.17;;;19.40;31.50;;;;;;5034044;28;20033;-75
2023/03/22 11:55:32;;;;;;;1.90;1.08;;;19.20;31.60;;;;;;5031462;28;20029;-76
2023/03/22 11:57:58;;;;;;;1.17;0.75;;;19.00;32.40;;;;;;5028169;28;20546;-77
2023/03/22 12:00:28;;;;;;;3.97;1.50;;;18.70;33.40;;;;;;5033015;28;20124;-76
2023/03/22 12:03:04;;;;;;;1.88;1.05;;;18.70;34.20;;;;;;5034475;28;20049;-76
2023/03/22 12:05:38;;;;;;;3.60;1.60;;;18.90;34.20;;;;;;5034753;28;20021;-76
2023/03/22 12:08:27;;;;;;;3.10;1.50;;;19.40;33.80;;;;;;5034852;28;20025;-76
2023/03/22 12:11:02;;;;;;;1.60;1.20;;;19.70;32.70;;;;;;5034916;28;20056;-74
2023/03/22 12:13:47;;;;;;;2.03;1.20;;;19.80;32.00;;;;;;5034444;28;20049;-78
2023/03/22 12:16:16;;;;;;;1.25;1.02;;;20.10;32.20;;;;;;5035079;28;20124;-76
2023/03/22 12:18:53;;;;;;;1.27;0.93;;;20.30;30.40;;;;;;5034553;28;20041;-75
2023/03/22 12:21:19;;;;;;;1.58;0.93;;;20.70;29.90;;;;;;5034941;28;20026;-76
2023/03/22 12:23:44;;;;;;;1.13;0.40;;;20.60;29.60;;;;;;5034874;28;20036;-76
2023/03/22 12:26:25;;;;;;;0.55;0.50;;;19.90;23.00;;;;;;5034751;28;20049;-74
2023/03/22 12:29:13;;;;;;;1.70;0.50;;;19.50;23.70;;;;;;5034023;28;20021;-76
2023/03/22 12:31:48;;;;;;;0.73;0.63;;;19.20;24.60;;;;;;5051019;28;20026;-76
2023/03/22 12:34:21;;;;;;;1.05;0.50;;;19.10;25.90;;;;;;5035890;28;20396;-76
2023/03/22 12:36:51;;;;;;;0.60;0.50;;;19.60;25.30;;;;;;5034901;28;20140;-79
2023/03/22 12:39:42;;;;;;;3.42;0.55;;;19.50;23.60;;;;;;5034527;28;20049;-78
2023/03/22 12:42:20;;;;;;;2.58;0.50;;;19.60;23.90;;;;;;5033611;28;20041;-77
2023/03/22 12:44:49;;;;;;;0.30;0.30;;;19.90;22.60;;;;;;5034055;28;20099;-75
2023/03/22 12:47:24;;;;;;;1.80;0.50;;;19.80;23.00;;;;;;5034451;28;20022;-78
2023/03/22 12:49:52;;;;;;;;;;;19.80;22.40;;;;;;5034388;28;20079;-79
2023/03/22 12:52:39;;;;;;;1.38;0.50;;;19.90;23.30;;;;;;5035447;28;19905;-76
2023/03/22 12:55:09;;;;;;;1.10;0.70;;;20.00;22.80;;;;;;5034002;28;20073;-79
2023/03/22 12:57:37;;;;;;;2.67;0.82;;;20.20;22.40;;;;;;5018095;28;20088;-77
2023/03/22 13:00:12;;;;;;;0.75;0.50;;;19.90;22.80;;;;;;5033234;28;20116;-77
2023/03/22 13:02:39;;;;;;;3.22;0.70;;;19.70;24.40;;;;;;5036115;28;20088;-78
2023/03/22 13:05:09;;;;;;;0.47;0.40;;;19.80;24.20;;;;;;5033931;28;20029;-78
2023/03/22 13:07:37;;;;;;;3.17;0.50;;;19.50;24.80;;;;;;5034901;28;20108;-78